KALB

Albany International Airport

Albany, New York, USA
METAR KALB 121751Z 02005KT 10SM BKN034 BKN046 04/M06 A3010 RMK AO2 SLP197 T00391061 10039 21011 51001
Observed Flight Rules
Dec-12 @ 17:51 UTC (58 minutes ago) Visual Flight Rules
Wind Visibility Clouds
20° at 5 knots 10 miles
  • Broken at 3,400' AGL
  • Broken at 4,600' AGL
Temperatures Readings
Current 4°C / 39°F
Dewpoint -6°C / 21°F
Humidity 48%
Altimeter 30.1" Hg
Pressure 1019.7 hPa
Elevation 92
METAR KALB 121751Z 02005KT 10SM BKN034 BKN046 04/M06 A3010 RMK AO2 SLP197 T00391061 10039 21011 51001
Observed Flight Rules
Dec-12 @ 17:51 UTC
(58 minutes ago)
VFR
Wind Visibility
20° at 5 knots 10 miles
Clouds
  • Broken at 3,400' AGL
  • Broken at 4,600' AGL
Temperature Dewpoint
4°C / 39°F -6°C / 21°F
Humidity Altimeter Pressure
48% 30.1" Hg 1019.7 hPa